Newburyport, Massachusetts
Current Conditions -  °F | °C
As of 9:54 PM on Saturday 24 Jan 2015 (Local Time) from KLWM Reporting Station
Clear Clear  
Wind Chill: 20°   Ceiling: Unl
Heat Index: 28°   Visibility: 10mi
Dew Point: 26°   Wind: 8mph
Humidity: 92%   Direction: 220°SW
Pressure: 29.26"   Gusts: NA
Location:  42.81°N, 70.87°W
Report Text: KLWM 250254Z 22007KT 10SM CLR M02/M03 A2926 RMK AO2 UPE17 SLP908 P0000 60003 T10221033 53009
Loading
Personal Weather Stations






























Interactive Weather Map New forecast layout! Learn more

10-Day Weather Forecast

Advertisements
Track Severe Weather on mobile